Gale Warning
Issued at: 05:00 AM TODAY , 14 October 2018
Gale Warning # 6 (Final)
For: strong to gale force winds associated with THE NORTHEASTerly surface windflow.

Gale Warning in PDF file



Weather Advisory
Issued at: 11:00 AM 2018 September 09
Weather Advisory in PDF file




Dams Water Level Update
As of 6 AM , 20 AUGUST 2018

General Flood Advisories - Regional
 General Flood Advisory issued as of 7 PM, 20 August 2018



Advisories


Monthly Climate Assessment and Outlook (July-August 2018)

Issued: 06 August 2018

Monthly Rainfall Forecast
RAINFALL FORECAST  (September 2018 - February 2019) 
UPDATED: 29 August 2018 (next update September 26, 2018)


Regional Rainfall Forecast
Issued: 29 August 2018
Valid for: September 2018 - February 2019
Farm Weather Forecast and Advisories
ISSUED: 8 AM, THURSDAY, OCTOBER 18, 2018
VALID UNTIL: 8 AM, FRIDAY, OCTOBER 19, 2018

FWFA:  N0. 18-293

Ten-Day Regional Agri-Weather Information
DEKAD NO. 29   OCTOBER 11 - 20, 2018
PHILIPPINE AGRI-WEATHER FORECAST
The weather systems that will affect the whole country are southwest monsoon, trough of tropical cyclone and intertropical convergence zone (ITCZ).

Seasonal Climate Outlook
Issued:  13 July 2018
FOR July - December 2018
PDF 




Astronomical Diary
Issue for October 2018
The October Orionids meteor shower will be active from October 17-25, 2017.




   PAGASA webmail  Learning Tools  Bidding 

  Training Activities  Vacancy  Research-and-Development

  Engineering  faqupdate  Publications 
TAF RPLL

180500Z 1806/1912 10007KT 9999 FEW025 SCT100 TX33/1806Z TN25/1822Z TEMPO 1806/1812 13012KT FEW023CB FEW025 BKN100 TEMPO 1812/1818 10005KT FEW022CB FEW023 SCT100=
TAF RPVM

180500Z 1806/1912 02006KT 9999 FEW020 BKN100 TEMPO 1806/1812 04006KT  8000 TSRA FEW018CB FEW020 OVC090   TEMPO 1812/1818 VRB04KT 9000 -SHRA  FEW018CB FEW020 BKN100=
TAF RPLB

180500Z 1806/1912 02006KT 9999 SCT020 BKN300 TX33/1806Z TN24/1821Z TEMPO 1806/1812 17008KT 7000  -TSRA FEW018CB SCT020 BKN100=
TAF RPLC

180500Z 1806/1906 09007KT 9999 FEW020 BKN300 TX32/1806Z TN24/1822Z TEMPO 1806/1812 34008KT 9000 -TSRA  FEW018CB SCT020 BKN080=
TAF RPLI

180500Z 1806/1906 02008KT 9999 FEW018  TEMPO 1806/1812 35010KT  FEW017CB FEW018=
TAF RPVP

180500Z 1806/1906 27005KT 9999 FEW020 BKN240 TEMPO 1806/1812 12010KT FEW017CB FEW019 SCT080=
TAF RPVD

180500Z 1806/1906 04006KT 9999 FEW015 BKN220 TEMPO 1806/1812 12010KT 9000  -SHRA FEW014CB FEW015 BKN080=
TAF RPMR

180500Z 1806/1906 02005KT 9999 FEW020  BKN250 TEMPO 1806/1812 16008KT 8000  -TSRA FEW017CB  SCT020 BKN080=
TAF RPMD

180500Z 1806/1906 02006KT 9999 FEW016  SCT090 BKN290 TEMPO 1808/1814 18008KT 8000 -TSRA  FEW015CB SCT016 BKN090=
TAF RPMZ

180500Z 1806/1906 27005KT 9999 FEW018 SCT090  TEMPO 1806/1812 25008KT 8000  -TSRA  FEW016CB FEW017 BKN090=
RPLL FORECAST TAKE-OFF CONDITION
TIME

(UTC)

WIND

(dddffKT)

TEMP

(°C)

QNH

(hPa)

TIME

(UTC)

WIND

(dddffKT)

TEMP

(°C)

QNH

(hPa)

0600

13012KT

33.0

1009.0

1000

12009KT

30.0

1009.5

0700

13012KT

32.5

1008.5

1100

12008KT

29.0

1010.0

0800

13012KT

32.0

1008.0

1200

13007KT

28.5

1010.5

0900

12010KT

31.5

1009.0

1300

13006KT

28.0

1011.0


ISSUED AT NAIA AMSS-WD/PAGASA-DOST FOR 0500UTC 18 OCTOBER 2018

PREPARED BY:                SSDH
CHECKED BY:                 MPT

PUBLIC WARNING 


It has come to the attention of the Office of the Administrator of PAGASA that a certain person has been using the name of Dr. Vicente B. Malano to solicit money from the contractors of PAGASA.

Dr. Malano wishes to inform the public that he has not authorized anyone to solicit money on his behalf and to warn everyone against dealing with unscrupulous activities of certain individuals.





payong pagasa on android The latest version of the official PAGASA app can now be downloaded on Google play store

Weather Division is now  ISO 9001:2008 Certified
Proof has been furnished by means of an audit that the requirements of ISO 9001:2008 are met.

Read more ...


TERMINATION OF THE SOUTHWEST MONSOON

Recent analyses showed a significant weakening of the southwest monsoon winds over the last few days. With this development, the southwest monsoon season or known as "Habagat" has ended.

Read more ...